createdAt,value
2017-11-17T00:01:06.685Z,2.40
2017-11-17T00:03:34.225Z,2.30
2017-11-17T00:06:02.547Z,2.30
2017-11-17T00:08:30.084Z,2.30
2017-11-17T00:10:57.642Z,2.30
2017-11-17T00:13:25.175Z,2.40
2017-11-17T00:15:53.516Z,2.30
2017-11-17T00:18:21.051Z,2.30
2017-11-17T00:20:48.604Z,2.30
2017-11-17T00:23:16.147Z,2.20
2017-11-17T00:25:44.477Z,2.30
2017-11-17T00:28:12.016Z,2.30
2017-11-17T00:30:39.575Z,2.30
2017-11-17T00:33:07.108Z,2.30
2017-11-17T00:35:34.650Z,2.30
2017-11-17T00:38:02.982Z,2.30
2017-11-17T00:40:30.511Z,2.30
2017-11-17T00:42:58.074Z,2.30
2017-11-17T00:45:25.621Z,2.30
2017-11-17T00:47:53.959Z,2.20
2017-11-17T00:50:21.504Z,2.20
2017-11-17T00:52:49.063Z,2.20
2017-11-17T00:55:16.599Z,2.20
2017-11-17T00:57:44.163Z,2.20
2017-11-17T01:00:11.698Z,2.10
2017-11-17T01:02:39.263Z,2.10
2017-11-17T01:05:06.800Z,2.10
2017-11-17T01:07:35.131Z,2.10
2017-11-17T01:10:02.659Z,2.10
2017-11-17T01:12:30.229Z,2.20
2017-11-17T01:14:57.775Z,2.30
2017-11-17T01:17:26.096Z,2.20
2017-11-17T01:19:53.633Z,2.10
2017-11-17T01:22:21.229Z,2.10
2017-11-17T01:24:48.790Z,2.30
2017-11-17T01:27:16.330Z,2.30
2017-11-17T01:29:43.904Z,2.20
2017-11-17T01:32:11.447Z,2.20
2017-11-17T01:34:39.007Z,2.20
2017-11-17T01:37:06.544Z,2.20
2017-11-17T01:39:34.103Z,2.20
2017-11-17T01:42:01.648Z,2.20
2017-11-17T01:44:29.975Z,2.30
2017-11-17T01:46:57.508Z,2.30
2017-11-17T01:49:25.073Z,2.30
2017-11-17T01:51:52.616Z,2.30
2017-11-17T01:54:20.171Z,2.30
2017-11-17T01:56:47.715Z,2.30
2017-11-17T01:59:16.041Z,2.30
2017-11-17T02:01:43.566Z,2.20
2017-11-17T02:04:11.137Z,2.30
2017-11-17T02:06:38.679Z,2.30
2017-11-17T02:09:07.004Z,2.30
2017-11-17T02:11:34.545Z,2.30
2017-11-17T02:14:02.120Z,2.30
2017-11-17T02:16:30.416Z,2.30
2017-11-17T02:18:57.976Z,2.20
2017-11-17T02:21:25.509Z,2.30
2017-11-17T02:23:53.066Z,2.30
2017-11-17T02:26:20.602Z,2.50
2017-11-17T02:28:48.136Z,2.50
2017-11-17T02:31:16.462Z,2.30
2017-11-17T02:33:44.002Z,2.30
2017-11-17T02:36:11.562Z,2.20
2017-11-17T02:38:39.096Z,2.30
2017-11-17T02:41:07.423Z,2.30
2017-11-17T02:43:34.963Z,2.30
2017-11-17T02:46:02.517Z,2.40
2017-11-17T02:48:30.049Z,2.40
2017-11-17T02:50:57.614Z,2.30
2017-11-17T02:53:25.915Z,2.30
2017-11-17T02:55:53.480Z,2.30
2017-11-17T02:58:21.029Z,2.30
2017-11-17T03:00:48.591Z,2.40
2017-11-17T03:03:16.119Z,2.40
2017-11-17T03:05:43.666Z,2.40
2017-11-17T03:08:11.209Z,2.50
2017-11-17T03:10:38.768Z,2.50
2017-11-17T03:13:06.303Z,2.40
2017-11-17T03:15:33.862Z,2.40
2017-11-17T03:18:01.406Z,2.30
2017-11-17T03:20:28.969Z,2.40
2017-11-17T03:22:56.517Z,2.40
2017-11-17T03:25:24.843Z,2.30
2017-11-17T03:27:53.142Z,2.40
2017-11-17T03:30:20.683Z,2.30
2017-11-17T03:32:48.240Z,2.40
2017-11-17T03:35:15.777Z,2.40
2017-11-17T03:37:43.340Z,2.40
2017-11-17T03:40:10.870Z,2.40
2017-11-17T03:42:39.196Z,2.40
2017-11-17T03:45:06.728Z,2.40
2017-11-17T03:47:34.294Z,2.40
2017-11-17T03:50:01.840Z,2.40
2017-11-17T03:52:29.395Z,2.40
2017-11-17T03:54:56.946Z,2.40
2017-11-17T03:57:25.281Z,2.40
2017-11-17T03:59:52.829Z,2.40
2017-11-17T04:02:20.381Z,2.50
2017-11-17T04:04:47.953Z,2.50
2017-11-17T04:07:16.276Z,2.50
2017-11-17T04:09:44.584Z,2.40
2017-11-17T04:12:12.144Z,2.40
2017-11-17T04:14:39.736Z,2.50
2017-11-17T04:17:07.300Z,2.40
2017-11-17T04:19:34.846Z,2.50
2017-11-17T04:22:02.408Z,2.50
2017-11-17T04:24:29.954Z,2.50
2017-11-17T04:26:57.516Z,2.50
2017-11-17T04:29:25.049Z,2.50
2017-11-17T04:31:52.616Z,2.50
2017-11-17T04:34:20.158Z,2.40
2017-11-17T04:36:48.500Z,2.50
2017-11-17T04:39:16.032Z,2.40
2017-11-17T04:41:43.576Z,2.40
2017-11-17T04:44:11.133Z,2.30
2017-11-17T04:46:38.667Z,2.40
2017-11-17T04:49:06.992Z,2.60
2017-11-17T04:51:34.528Z,2.60
2017-11-17T04:54:02.089Z,2.50
2017-11-17T04:56:29.612Z,2.60
2017-11-17T04:58:57.941Z,2.50
2017-11-17T05:01:25.475Z,2.50
2017-11-17T05:03:53.024Z,2.70
2017-11-17T05:06:21.332Z,2.60
2017-11-17T05:08:48.880Z,2.60
2017-11-17T05:11:16.407Z,2.60
2017-11-17T05:13:44.738Z,2.60
2017-11-17T05:16:12.278Z,2.60
2017-11-17T05:18:39.827Z,2.60
2017-11-17T05:21:07.369Z,2.70
2017-11-17T05:23:35.695Z,2.70
2017-11-17T05:26:03.230Z,2.60
2017-11-17T05:28:30.788Z,2.70
2017-11-17T05:30:58.315Z,2.60
2017-11-17T05:33:25.875Z,2.70
2017-11-17T05:35:53.408Z,2.70
2017-11-17T05:38:21.748Z,2.60
2017-11-17T05:40:49.281Z,2.60
2017-11-17T05:43:17.593Z,2.60
2017-11-17T05:45:45.157Z,2.60
2017-11-17T05:48:12.711Z,2.70
2017-11-17T05:50:40.276Z,2.70
2017-11-17T05:53:07.808Z,2.70
2017-11-17T05:55:36.137Z,2.70
2017-11-17T05:58:03.669Z,2.70
2017-11-17T06:00:31.236Z,2.80
2017-11-17T06:02:58.783Z,2.80
2017-11-17T06:05:26.358Z,2.90
2017-11-17T06:07:53.883Z,2.90
2017-11-17T06:10:22.205Z,2.90
2017-11-17T06:12:49.733Z,2.80
2017-11-17T06:15:17.291Z,2.90
2017-11-17T06:17:44.855Z,3.10
2017-11-17T06:20:12.411Z,3.10
2017-11-17T06:22:39.943Z,3.10
2017-11-17T06:25:08.277Z,2.80
2017-11-17T06:27:35.812Z,2.80
2017-11-17T06:30:03.369Z,2.90
2017-11-17T06:32:30.908Z,2.90
2017-11-17T06:34:59.238Z,3.20
2017-11-17T06:37:26.783Z,3.20
2017-11-17T06:39:54.323Z,3.00
2017-11-17T06:42:21.888Z,2.70
2017-11-17T06:44:49.424Z,2.70
2017-11-17T06:47:17.753Z,2.70
2017-11-17T06:49:45.285Z,2.70
2017-11-17T06:52:12.845Z,2.80
2017-11-17T06:54:40.385Z,2.80
2017-11-17T06:57:08.712Z,3.00
2017-11-17T06:59:36.244Z,3.00
2017-11-17T07:02:03.791Z,2.90
2017-11-17T07:04:32.083Z,2.90
2017-11-17T07:06:59.643Z,2.90
2017-11-17T07:09:27.176Z,2.90
2017-11-17T07:11:55.496Z,2.90
2017-11-17T07:14:23.029Z,2.90
2017-11-17T07:16:50.593Z,3.10
2017-11-17T07:19:18.123Z,3.10
2017-11-17T07:21:46.453Z,3.00
2017-11-17T07:24:13.988Z,3.00
2017-11-17T07:26:41.548Z,3.00
2017-11-17T07:29:09.083Z,3.10
2017-11-17T07:31:37.400Z,3.30
2017-11-17T07:34:04.927Z,3.30
2017-11-17T07:36:33.256Z,3.40
2017-11-17T07:39:00.792Z,3.40
2017-11-17T07:41:28.378Z,3.30
2017-11-17T07:43:55.919Z,3.50
2017-11-17T07:46:23.448Z,3.70
2017-11-17T07:48:51.772Z,3.80
2017-11-17T07:51:20.074Z,3.80
2017-11-17T07:53:47.636Z,3.80
2017-11-17T07:56:15.168Z,3.90
2017-11-17T07:58:42.717Z,3.90
2017-11-17T08:01:11.046Z,3.90
2017-11-17T08:03:39.389Z,4.00
2017-11-17T08:06:06.926Z,4.00
2017-11-17T08:08:34.483Z,4.00
2017-11-17T08:11:02.012Z,3.90
2017-11-17T08:13:30.343Z,4.40
2017-11-17T08:15:57.879Z,4.40
2017-11-17T08:18:31.372Z,4.10
2017-11-17T08:20:58.904Z,3.70
2017-11-17T08:23:27.277Z,3.70
2017-11-17T08:25:55.646Z,4.00
2017-11-17T08:28:23.993Z,4.30
2017-11-17T08:30:51.532Z,4.30
2017-11-17T08:33:19.088Z,4.40
2017-11-17T08:35:46.624Z,4.20
2017-11-17T08:38:14.969Z,3.80
2017-11-17T08:40:42.512Z,3.80
2017-11-17T08:43:10.044Z,4.00
2017-11-17T08:45:37.607Z,4.00
2017-11-17T08:48:05.135Z,4.40
2017-11-17T08:50:33.456Z,4.30
2017-11-17T08:53:01.000Z,4.30
2017-11-17T08:55:28.558Z,4.20
2017-11-17T08:57:56.133Z,3.80
2017-11-17T09:00:23.682Z,3.90
2017-11-17T09:02:51.220Z,4.10
2017-11-17T09:05:19.543Z,4.30
2017-11-17T09:07:47.076Z,4.30
2017-11-17T09:10:14.634Z,4.30
2017-11-17T09:12:42.164Z,4.50
2017-11-17T09:15:10.492Z,4.20
2017-11-17T09:17:38.020Z,4.20
2017-11-17T09:20:06.332Z,4.50
2017-11-17T09:22:33.863Z,4.50
2017-11-17T09:25:01.419Z,4.50
2017-11-17T09:27:28.957Z,4.70
2017-11-17T09:29:57.280Z,5.50
2017-11-17T09:32:24.816Z,5.50
2017-11-17T09:34:52.368Z,5.40
2017-11-17T09:37:20.673Z,5.40
2017-11-17T09:39:48.240Z,5.40
2017-11-17T09:42:15.793Z,5.20
2017-11-17T09:44:43.331Z,5.40
2017-11-17T09:47:10.888Z,5.40
2017-11-17T09:49:38.440Z,5.20
2017-11-17T09:52:06.763Z,5.10
2017-11-17T09:54:34.297Z,5.10
2017-11-17T09:57:01.864Z,4.80
2017-11-17T09:59:29.402Z,4.40
2017-11-17T10:01:57.725Z,4.30
2017-11-17T10:04:25.255Z,4.30
2017-11-17T10:06:52.816Z,4.50
2017-11-17T10:09:20.343Z,4.70
2017-11-17T10:11:48.660Z,5.00
2017-11-17T10:14:16.188Z,5.00
2017-11-17T10:16:44.510Z,4.90
2017-11-17T10:19:12.039Z,4.90
2017-11-17T10:21:39.600Z,4.80
2017-11-17T10:24:07.137Z,5.00
2017-11-17T10:26:35.459Z,5.80
2017-11-17T10:29:02.992Z,5.70
2017-11-17T10:31:30.570Z,5.80
2017-11-17T10:33:58.100Z,5.80
2017-11-17T10:36:26.415Z,6.20
2017-11-17T10:38:53.947Z,6.20
2017-11-17T10:41:21.511Z,6.50
2017-11-17T10:43:49.037Z,6.90
2017-11-17T10:46:16.568Z,7.10
2017-11-17T10:48:44.117Z,6.80
2017-11-17T10:51:11.656Z,6.80
2017-11-17T10:53:39.212Z,6.20
2017-11-17T10:56:06.740Z,6.00
2017-11-17T10:58:34.296Z,5.80
2017-11-17T11:01:01.827Z,5.40
2017-11-17T11:03:29.382Z,5.50
2017-11-17T11:05:56.917Z,5.50
2017-11-17T11:08:24.480Z,5.50
2017-11-17T11:10:57.744Z,5.40
2017-11-17T11:13:26.078Z,5.60
2017-11-17T11:15:53.603Z,5.60
2017-11-17T11:18:21.157Z,5.70
2017-11-17T11:20:48.692Z,5.80
2017-11-17T11:23:17.025Z,6.00
2017-11-17T11:25:45.323Z,5.90
2017-11-17T11:28:12.879Z,5.80
2017-11-17T11:30:40.412Z,5.90
2017-11-17T11:33:07.971Z,6.10
2017-11-17T11:35:35.500Z,6.30
2017-11-17T11:38:03.828Z,6.30
2017-11-17T11:40:31.351Z,6.30
2017-11-17T11:42:58.881Z,6.40
2017-11-17T11:45:27.255Z,6.80
2017-11-17T11:47:55.563Z,6.90
2017-11-17T11:50:23.124Z,6.90
2017-11-17T11:52:50.656Z,6.70
2017-11-17T11:55:18.976Z,7.50
2017-11-17T11:57:46.506Z,7.50
2017-11-17T12:00:14.832Z,7.50
2017-11-17T12:02:42.372Z,7.40
2017-11-17T12:05:09.927Z,7.00
2017-11-17T12:07:37.458Z,7.00
2017-11-17T12:10:05.776Z,6.90
2017-11-17T12:12:33.315Z,6.90
2017-11-17T12:15:00.877Z,7.40
2017-11-17T12:17:28.408Z,7.30
2017-11-17T12:19:56.744Z,7.10
2017-11-17T12:22:24.273Z,7.10
2017-11-17T12:24:51.828Z,7.10
2017-11-17T12:27:19.363Z,7.00
2017-11-17T12:29:47.685Z,7.00
2017-11-17T12:32:15.215Z,7.00
2017-11-17T12:34:42.772Z,6.90
2017-11-17T12:37:11.070Z,7.10
2017-11-17T12:39:38.634Z,7.10
2017-11-17T12:42:06.168Z,7.00
2017-11-17T12:44:34.493Z,6.90
2017-11-17T12:47:02.020Z,6.90
2017-11-17T12:49:29.551Z,7.40
2017-11-17T12:51:57.876Z,7.70
2017-11-17T12:54:25.413Z,7.70
2017-11-17T12:56:52.955Z,7.60
2017-11-17T12:59:21.248Z,7.70
2017-11-17T13:01:48.812Z,7.70
2017-11-17T13:04:16.347Z,7.50
2017-11-17T13:06:44.663Z,8.00
2017-11-17T13:09:12.192Z,8.00
2017-11-17T13:11:40.513Z,7.80
2017-11-17T13:14:08.047Z,7.80
2017-11-17T13:16:35.599Z,7.60
2017-11-17T13:19:03.136Z,7.60
2017-11-17T13:21:31.475Z,7.60
2017-11-17T13:23:59.003Z,7.60
2017-11-17T13:26:26.560Z,7.80
2017-11-17T13:28:54.092Z,8.00
2017-11-17T13:31:22.426Z,8.30
2017-11-17T13:33:49.962Z,8.30
2017-11-17T13:36:17.520Z,8.20
2017-11-17T13:38:45.052Z,8.10
2017-11-17T13:41:13.374Z,8.00
2017-11-17T13:43:40.911Z,8.00
2017-11-17T13:46:08.468Z,7.80
2017-11-17T13:48:35.999Z,7.70
2017-11-17T13:51:03.559Z,7.60
2017-11-17T13:53:31.087Z,7.80
2017-11-17T13:55:58.657Z,7.90
2017-11-17T13:58:27.698Z,7.60
2017-11-17T14:00:55.228Z,7.60
2017-11-17T14:03:22.796Z,7.50
2017-11-17T14:05:51.099Z,7.30
2017-11-17T14:08:18.655Z,7.30
2017-11-17T14:10:46.192Z,7.50
2017-11-17T14:13:14.520Z,7.60
2017-11-17T14:15:42.048Z,7.50
2017-11-17T14:18:09.614Z,7.40
2017-11-17T14:20:37.152Z,7.60
2017-11-17T14:23:05.477Z,7.70
2017-11-17T14:25:33.023Z,7.80
2017-11-17T14:28:00.580Z,7.90
2017-11-17T14:30:28.111Z,8.00
2017-11-17T14:32:56.431Z,7.90
2017-11-17T14:35:23.964Z,7.90
2017-11-17T14:37:51.528Z,7.80
2017-11-17T14:40:19.060Z,7.80
2017-11-17T14:42:47.390Z,7.50
2017-11-17T14:45:14.936Z,7.50
2017-11-17T14:47:42.493Z,7.70
2017-11-17T14:50:10.033Z,7.70
2017-11-17T14:52:38.365Z,7.60
2017-11-17T14:55:05.901Z,7.60
2017-11-17T14:57:33.451Z,7.40
2017-11-17T15:00:01.012Z,7.30
2017-11-17T15:02:28.547Z,7.40
2017-11-17T15:04:56.869Z,7.10
2017-11-17T15:07:24.422Z,7.10
2017-11-17T15:09:51.981Z,7.10
2017-11-17T15:12:19.515Z,7.20
2017-11-17T15:14:47.076Z,7.20
2017-11-17T15:17:14.625Z,7.00
2017-11-17T15:19:42.958Z,7.00
2017-11-17T15:22:10.504Z,6.90
2017-11-17T15:24:38.073Z,7.00
2017-11-17T15:27:05.613Z,7.10
2017-11-17T15:29:33.177Z,6.80
2017-11-17T15:32:00.708Z,6.70
2017-11-17T15:34:28.280Z,6.50
2017-11-17T15:36:55.819Z,6.40
2017-11-17T15:39:24.148Z,6.20
2017-11-17T15:41:52.460Z,6.10
2017-11-17T15:44:20.028Z,6.10
2017-11-17T15:46:48.350Z,5.90
2017-11-17T15:49:15.913Z,5.90
2017-11-17T15:51:43.469Z,5.90
2017-11-17T15:54:11.044Z,5.70
2017-11-17T15:56:39.356Z,5.50
2017-11-17T15:59:10.756Z,5.40
2017-11-17T16:01:38.341Z,5.30
2017-11-17T16:04:05.919Z,5.30
2017-11-17T16:06:35.523Z,5.20
2017-11-17T16:09:03.060Z,5.20
2017-11-17T16:11:30.809Z,5.10
2017-11-17T16:13:58.344Z,5.10
2017-11-17T16:16:25.908Z,5.30
2017-11-17T16:18:53.602Z,5.40
2017-11-17T16:21:21.255Z,5.50
2017-11-17T16:23:48.817Z,5.40
2017-11-17T16:26:16.382Z,5.40
2017-11-17T16:28:43.992Z,5.40
2017-11-17T16:31:12.412Z,5.30
2017-11-17T16:33:40.439Z,5.30
2017-11-17T16:36:09.276Z,5.30
2017-11-17T16:38:37.104Z,5.30
2017-11-17T16:41:04.839Z,5.40
2017-11-17T16:43:32.456Z,5.40
2017-11-17T16:46:00.248Z,5.50
2017-11-17T16:48:27.845Z,5.50
2017-11-17T16:50:55.411Z,5.40
2017-11-17T16:53:23.717Z,5.50
2017-11-17T16:55:51.276Z,5.40
2017-11-17T16:58:18.805Z,5.50
2017-11-17T17:00:47.151Z,5.60
2017-11-17T17:03:14.688Z,5.50
2017-11-17T17:05:42.223Z,5.40
2017-11-17T17:08:09.804Z,5.40
2017-11-17T17:10:37.332Z,5.40
2017-11-17T17:13:05.662Z,5.30
2017-11-17T17:15:33.202Z,5.30
2017-11-17T17:18:01.012Z,5.30
2017-11-17T17:20:28.684Z,5.30
2017-11-17T17:22:56.235Z,5.30
2017-11-17T17:25:23.774Z,5.30
2017-11-17T17:27:51.364Z,5.30
2017-11-17T17:30:19.675Z,5.20
2017-11-17T17:32:47.242Z,5.20
2017-11-17T17:35:14.768Z,5.30
2017-11-17T17:37:43.106Z,5.20
2017-11-17T17:40:10.650Z,5.20
2017-11-17T17:42:38.210Z,5.30
2017-11-17T17:45:05.769Z,5.20
2017-11-17T17:47:34.109Z,5.10
2017-11-17T17:50:02.535Z,5.10
2017-11-17T17:52:30.410Z,5.10
2017-11-17T17:54:58.429Z,5.10
2017-11-17T17:57:26.040Z,5.10
2017-11-17T17:59:53.567Z,5.10
2017-11-17T18:02:21.131Z,5.30
2017-11-17T18:04:48.676Z,5.30
2017-11-17T18:07:16.217Z,5.10
2017-11-17T18:09:44.545Z,5.30
2017-11-17T18:12:12.081Z,5.20
2017-11-17T18:14:39.994Z,5.30
2017-11-17T18:17:07.536Z,5.30
2017-11-17T18:19:35.102Z,5.30
2017-11-17T18:22:02.663Z,5.30
2017-11-17T18:24:30.217Z,5.30
2017-11-17T18:26:57.754Z,5.40
2017-11-17T18:29:25.309Z,5.50
2017-11-17T18:31:52.862Z,5.60
2017-11-17T18:34:20.757Z,5.60
2017-11-17T18:36:48.335Z,5.70
2017-11-17T18:39:15.924Z,5.70
2017-11-17T18:41:44.288Z,5.70
2017-11-17T18:44:11.824Z,5.70
2017-11-17T18:46:39.382Z,5.90
2017-11-17T18:49:06.944Z,5.90
2017-11-17T18:51:34.480Z,5.80
2017-11-17T18:54:02.049Z,5.90
2017-11-17T18:56:29.599Z,5.80
2017-11-17T18:58:57.156Z,5.80
2017-11-17T19:01:24.767Z,5.80
2017-11-17T19:03:52.355Z,5.80
2017-11-17T19:06:20.661Z,5.50
2017-11-17T19:08:48.264Z,5.50
2017-11-17T19:11:15.786Z,5.40
2017-11-17T19:13:43.354Z,5.40
2017-11-17T19:16:10.887Z,5.50
2017-11-17T19:18:38.430Z,5.40
2017-11-17T19:21:06.752Z,5.30
2017-11-17T19:23:34.289Z,5.30
2017-11-17T19:26:01.842Z,5.50
2017-11-17T19:28:30.141Z,5.20
2017-11-17T19:30:57.731Z,5.20
2017-11-17T19:33:25.289Z,5.20
2017-11-17T19:35:52.892Z,5.30
2017-11-17T19:38:20.396Z,5.30
2017-11-17T19:40:47.976Z,5.20
2017-11-17T19:43:15.518Z,5.20
2017-11-17T19:45:43.076Z,5.30
2017-11-17T19:48:10.612Z,5.30
2017-11-17T19:50:38.941Z,5.20
2017-11-17T19:53:06.483Z,5.20
2017-11-17T19:55:34.040Z,5.40
2017-11-17T19:58:01.577Z,5.30
2017-11-17T20:00:29.172Z,5.20
2017-11-17T20:02:56.709Z,5.00
2017-11-17T20:05:25.043Z,5.10
2017-11-17T20:07:53.341Z,5.30
2017-11-17T20:10:20.887Z,5.30
2017-11-17T20:12:49.218Z,5.40
2017-11-17T20:15:16.752Z,5.40
2017-11-17T20:17:44.306Z,5.40
2017-11-17T20:20:11.845Z,5.50
2017-11-17T20:22:40.173Z,5.40
2017-11-17T20:25:07.717Z,5.40
2017-11-17T20:27:35.284Z,5.50
2017-11-17T20:30:02.821Z,5.60
2017-11-17T20:32:30.380Z,5.60
2017-11-17T20:34:57.987Z,5.70
2017-11-17T20:37:25.555Z,5.60
2017-11-17T20:39:53.092Z,5.60
2017-11-17T20:42:20.644Z,5.50
2017-11-17T20:44:48.172Z,5.70
2017-11-17T20:47:15.727Z,5.70
2017-11-17T20:49:43.329Z,5.80
2017-11-17T20:52:10.893Z,5.80
2017-11-17T20:54:38.446Z,5.80
2017-11-17T20:57:06.767Z,5.70
2017-11-17T20:59:35.069Z,5.70
2017-11-17T21:02:02.625Z,5.70
2017-11-17T21:04:30.163Z,5.70
2017-11-17T21:06:58.488Z,5.70
2017-11-17T21:09:26.019Z,5.70
2017-11-17T21:11:53.583Z,5.70
2017-11-17T21:14:21.116Z,5.80
2017-11-17T21:16:48.648Z,5.90
2017-11-17T21:19:24.705Z,6.00
2017-11-17T21:21:52.237Z,6.00
2017-11-17T21:24:19.787Z,5.90
2017-11-17T21:26:47.325Z,5.70
2017-11-17T21:29:15.639Z,5.60
2017-11-17T21:31:43.179Z,5.60
2017-11-17T21:34:10.740Z,5.50
2017-11-17T21:36:38.342Z,5.50
2017-11-17T21:39:05.887Z,5.50
2017-11-17T21:41:33.415Z,5.50
2017-11-17T21:44:00.983Z,5.50
2017-11-17T21:46:28.565Z,5.60
2017-11-17T21:48:56.120Z,5.70
2017-11-17T21:51:23.675Z,5.60
2017-11-17T21:53:51.231Z,5.50
2017-11-17T21:56:18.771Z,5.50
2017-11-17T21:58:46.335Z,5.40
2017-11-17T22:01:13.901Z,5.40
2017-11-17T22:03:41.462Z,5.40
2017-11-17T22:06:08.997Z,5.50
2017-11-17T22:08:37.352Z,5.40
2017-11-17T22:11:07.615Z,5.40
2017-11-17T22:13:37.684Z,5.40
2017-11-17T22:16:14.008Z,5.50
2017-11-17T22:18:49.279Z,5.50
2017-11-17T22:21:18.579Z,5.50
2017-11-17T22:23:50.980Z,5.50
2017-11-17T22:26:23.709Z,5.50
2017-11-17T22:28:51.276Z,5.50
2017-11-17T22:52:22.356Z,5.50
2017-11-17T22:54:50.025Z,5.50
2017-11-17T22:57:17.573Z,5.40
2017-11-17T22:59:45.976Z,5.50
2017-11-17T23:02:13.947Z,5.50
2017-11-17T23:04:41.691Z,5.50
2017-11-17T23:07:09.554Z,5.50
2017-11-17T23:09:37.194Z,5.50
2017-11-17T23:12:04.773Z,5.50
2017-11-17T23:14:32.375Z,5.60
2017-11-17T23:17:00.005Z,5.60
2017-11-17T23:19:28.464Z,5.60
2017-11-17T23:21:56.700Z,5.60
2017-11-17T23:24:24.367Z,5.60
2017-11-17T23:26:51.939Z,5.60
2017-11-17T23:29:19.475Z,5.60
2017-11-17T23:31:47.317Z,5.50
2017-11-17T23:34:14.970Z,5.40
2017-11-17T23:36:49.672Z,5.40
2017-11-17T23:39:18.356Z,5.30
2017-11-17T23:41:46.012Z,5.30
2017-11-17T23:44:14.326Z,5.30
2017-11-17T23:46:41.892Z,5.30
2017-11-17T23:49:09.551Z,5.40
2017-11-17T23:51:37.376Z,5.40
2017-11-17T23:54:05.951Z,5.50
2017-11-17T23:56:35.508Z,5.40
2017-11-17T23:59:03.251Z,5.40
